Montenegro, Brazil
Current Conditions -  °F | °C
As of 10:00 PM on Tuesday 21 Oct 2014 (Local Time) from SBCO Reporting Station
Clear Clear  
Wind Chill: 63°   Ceiling: Unl
Heat Index: 63°   Visibility: 6mi
Dew Point: 57°   Wind: 9mph
Humidity: 82%   Direction: 140°SE
Pressure: 30.18"   Gusts: NA
Location:  29.69°S, 51.46°W
Report Text: SBCO 220000Z 14008KT CAVOK 17/14 Q1022
Loading
Personal Weather Stations






























Interactive Weather Map New forecast layout! Learn more

10-Day Weather Forecast

Advertisements
Track Severe Weather on mobile